sensor_id;sensor_type;location;lat;lon;timestamp;P1;durP1;ratioP1;P2;durP2;ratioP2
18280;SDS011;9266;51.132;17.062;2023-05-10T00:02:08;9.00;;;6.77;;
18280;SDS011;9266;51.132;17.062;2023-05-10T00:04:35;8.00;;;6.67;;
18280;SDS011;9266;51.132;17.062;2023-05-10T00:07:03;8.97;;;6.43;;
18280;SDS011;9266;51.132;17.062;2023-05-10T00:09:31;8.33;;;6.67;;
18280;SDS011;9266;51.132;17.062;2023-05-10T00:11:58;9.83;;;6.67;;
18280;SDS011;9266;51.132;17.062;2023-05-10T00:14:25;11.07;;;7.33;;
18280;SDS011;9266;51.132;17.062;2023-05-10T00:16:52;9.03;;;7.20;;
18280;SDS011;9266;51.132;17.062;2023-05-10T00:19:19;12.63;;;7.13;;
18280;SDS011;9266;51.132;17.062;2023-05-10T00:21:46;7.07;;;6.37;;
18280;SDS011;9266;51.132;17.062;2023-05-10T00:24:13;7.73;;;6.60;;
18280;SDS011;9266;51.132;17.062;2023-05-10T00:26:41;9.13;;;6.87;;
18280;SDS011;9266;51.132;17.062;2023-05-10T00:29:08;9.23;;;6.97;;
18280;SDS011;9266;51.132;17.062;2023-05-10T00:31:35;7.27;;;6.50;;
18280;SDS011;9266;51.132;17.062;2023-05-10T00:34:02;11.27;;;7.60;;
18280;SDS011;9266;51.132;17.062;2023-05-10T00:36:29;10.43;;;7.80;;
18280;SDS011;9266;51.132;17.062;2023-05-10T00:38:56;9.90;;;7.77;;
18280;SDS011;9266;51.132;17.062;2023-05-10T00:41:23;9.90;;;8.20;;
18280;SDS011;9266;51.132;17.062;2023-05-10T00:43:52;9.63;;;8.63;;
18280;SDS011;9266;51.132;17.062;2023-05-10T00:46:19;12.30;;;8.47;;
18280;SDS011;9266;51.132;17.062;2023-05-10T00:48:46;11.20;;;9.10;;
18280;SDS011;9266;51.132;17.062;2023-05-10T00:51:14;10.00;;;9.00;;
18280;SDS011;9266;51.132;17.062;2023-05-10T00:53:41;10.20;;;9.03;;
18280;SDS011;9266;51.132;17.062;2023-05-10T00:56:08;10.57;;;9.47;;
18280;SDS011;9266;51.132;17.062;2023-05-10T00:58:36;10.37;;;9.17;;
18280;SDS011;9266;51.132;17.062;2023-05-10T01:01:04;12.70;;;9.97;;
18280;SDS011;9266;51.132;17.062;2023-05-10T01:03:32;11.00;;;10.07;;
18280;SDS011;9266;51.132;17.062;2023-05-10T01:05:59;12.33;;;11.03;;
18280;SDS011;9266;51.132;17.062;2023-05-10T01:08:26;11.97;;;10.77;;
18280;SDS011;9266;51.132;17.062;2023-05-10T01:10:54;11.00;;;10.00;;
18280;SDS011;9266;51.132;17.062;2023-05-10T01:13:25;11.67;;;10.67;;
18280;SDS011;9266;51.132;17.062;2023-05-10T01:15:59;11.67;;;10.47;;
18280;SDS011;9266;51.132;17.062;2023-05-10T01:18:30;12.13;;;10.93;;
18280;SDS011;9266;51.132;17.062;2023-05-10T01:21:01;12.93;;;11.60;;
18280;SDS011;9266;51.132;17.062;2023-05-10T01:23:55;13.03;;;11.80;;
18280;SDS011;9266;51.132;17.062;2023-05-10T01:32:30;12.00;;;10.97;;
18280;SDS011;9266;51.132;17.062;2023-05-10T01:35:02;12.13;;;11.03;;
18280;SDS011;9266;51.132;17.062;2023-05-10T01:37:36;12.20;;;10.93;;
18280;SDS011;9266;51.132;17.062;2023-05-10T01:40:09;13.53;;;12.33;;
18280;SDS011;9266;51.132;17.062;2023-05-10T01:42:46;13.03;;;11.73;;
18280;SDS011;9266;51.132;17.062;2023-05-10T01:45:20;12.07;;;10.80;;
18280;SDS011;9266;51.132;17.062;2023-05-10T01:47:57;11.70;;;10.70;;
18280;SDS011;9266;51.132;17.062;2023-05-10T01:50:30;13.70;;;12.53;;
18280;SDS011;9266;51.132;17.062;2023-05-10T01:52:59;13.67;;;12.47;;
18280;SDS011;9266;51.132;17.062;2023-05-10T01:55:28;15.63;;;14.33;;
18280;SDS011;9266;51.132;17.062;2023-05-10T01:58:00;15.80;;;14.43;;
18280;SDS011;9266;51.132;17.062;2023-05-10T02:00:29;15.07;;;13.93;;
18280;SDS011;9266;51.132;17.062;2023-05-10T02:02:59;15.50;;;14.10;;
18280;SDS011;9266;51.132;17.062;2023-05-10T02:05:30;14.87;;;13.77;;
18280;SDS011;9266;51.132;17.062;2023-05-10T02:07:59;17.67;;;16.37;;
18280;SDS011;9266;51.132;17.062;2023-05-10T02:10:27;17.53;;;16.23;;
18280;SDS011;9266;51.132;17.062;2023-05-10T02:12:55;17.70;;;16.43;;
18280;SDS011;9266;51.132;17.062;2023-05-10T02:15:26;19.90;;;18.60;;
18280;SDS011;9266;51.132;17.062;2023-05-10T02:17:54;21.30;;;19.80;;
18280;SDS011;9266;51.132;17.062;2023-05-10T02:20:24;22.10;;;20.33;;
18280;SDS011;9266;51.132;17.062;2023-05-10T02:22:53;22.57;;;20.93;;
18280;SDS011;9266;51.132;17.062;2023-05-10T02:25:22;22.57;;;20.80;;
18280;SDS011;9266;51.132;17.062;2023-05-10T02:27:50;22.20;;;20.47;;
18280;SDS011;9266;51.132;17.062;2023-05-10T02:30:20;21.63;;;19.97;;
18280;SDS011;9266;51.132;17.062;2023-05-10T02:32:48;21.70;;;20.23;;
18280;SDS011;9266;51.132;17.062;2023-05-10T02:35:16;21.57;;;20.07;;
18280;SDS011;9266;51.132;17.062;2023-05-10T02:37:45;23.57;;;21.67;;
18280;SDS011;9266;51.132;17.062;2023-05-10T02:40:14;27.20;;;25.23;;
18280;SDS011;9266;51.132;17.062;2023-05-10T02:42:43;22.43;;;20.70;;
18280;SDS011;9266;51.132;17.062;2023-05-10T02:45:12;22.87;;;21.27;;
18280;SDS011;9266;51.132;17.062;2023-05-10T02:47:41;22.40;;;20.73;;
18280;SDS011;9266;51.132;17.062;2023-05-10T02:50:09;19.83;;;18.43;;
18280;SDS011;9266;51.132;17.062;2023-05-10T02:52:39;22.33;;;20.73;;
18280;SDS011;9266;51.132;17.062;2023-05-10T02:55:11;20.03;;;18.37;;
18280;SDS011;9266;51.132;17.062;2023-05-10T02:57:41;20.67;;;19.17;;
18280;SDS011;9266;51.132;17.062;2023-05-10T03:00:11;19.37;;;18.00;;
18280;SDS011;9266;51.132;17.062;2023-05-10T03:02:39;18.60;;;17.30;;
18280;SDS011;9266;51.132;17.062;2023-05-10T03:05:06;20.80;;;19.20;;
18280;SDS011;9266;51.132;17.062;2023-05-10T03:07:33;19.17;;;17.53;;
18280;SDS011;9266;51.132;17.062;2023-05-10T03:10:00;19.13;;;17.83;;
18280;SDS011;9266;51.132;17.062;2023-05-10T03:12:31;19.70;;;18.33;;
18280;SDS011;9266;51.132;17.062;2023-05-10T03:15:10;18.97;;;17.17;;
18280;SDS011;9266;51.132;17.062;2023-05-10T03:17:45;16.73;;;15.10;;
18280;SDS011;9266;51.132;17.062;2023-05-10T03:20:21;18.57;;;17.07;;
18280;SDS011;9266;51.132;17.062;2023-05-10T03:22:53;16.00;;;14.73;;
18280;SDS011;9266;51.132;17.062;2023-05-10T03:25:26;17.37;;;15.80;;
18280;SDS011;9266;51.132;17.062;2023-05-10T03:27:58;17.27;;;15.87;;
18280;SDS011;9266;51.132;17.062;2023-05-10T03:30:27;15.80;;;14.40;;
18280;SDS011;9266;51.132;17.062;2023-05-10T03:32:55;17.47;;;16.17;;
18280;SDS011;9266;51.132;17.062;2023-05-10T03:35:23;13.53;;;12.43;;
18280;SDS011;9266;51.132;17.062;2023-05-10T03:37:50;20.23;;;18.43;;
18280;SDS011;9266;51.132;17.062;2023-05-10T03:40:17;27.53;;;25.77;;
18280;SDS011;9266;51.132;17.062;2023-05-10T03:42:44;16.30;;;14.77;;
18280;SDS011;9266;51.132;17.062;2023-05-10T03:45:13;15.60;;;14.30;;
18280;SDS011;9266;51.132;17.062;2023-05-10T03:47:40;12.73;;;11.43;;
18280;SDS011;9266;51.132;17.062;2023-05-10T03:50:07;11.20;;;10.10;;
18280;SDS011;9266;51.132;17.062;2023-05-10T03:52:35;9.70;;;8.70;;
18280;SDS011;9266;51.132;17.062;2023-05-10T03:55:04;8.83;;;7.87;;
18280;SDS011;9266;51.132;17.062;2023-05-10T03:57:33;12.67;;;7.07;;
18280;SDS011;9266;51.132;17.062;2023-05-10T04:00:00;8.63;;;6.90;;
18280;SDS011;9266;51.132;17.062;2023-05-10T04:02:29;10.30;;;6.73;;
18280;SDS011;9266;51.132;17.062;2023-05-10T04:04:56;10.17;;;6.73;;
18280;SDS011;9266;51.132;17.062;2023-05-10T04:07:23;8.50;;;6.53;;
18280;SDS011;9266;51.132;17.062;2023-05-10T04:09:50;9.23;;;6.20;;
18280;SDS011;9266;51.132;17.062;2023-05-10T04:12:17;8.63;;;6.00;;
18280;SDS011;9266;51.132;17.062;2023-05-10T04:14:44;8.57;;;6.37;;
18280;SDS011;9266;51.132;17.062;2023-05-10T04:17:11;9.37;;;6.63;;
18280;SDS011;9266;51.132;17.062;2023-05-10T04:19:39;7.63;;;5.67;;
18280;SDS011;9266;51.132;17.062;2023-05-10T04:22:06;9.67;;;6.40;;
18280;SDS011;9266;51.132;17.062;2023-05-10T04:24:34;8.53;;;5.90;;
18280;SDS011;9266;51.132;17.062;2023-05-10T04:27:01;9.10;;;6.10;;
18280;SDS011;9266;51.132;17.062;2023-05-10T04:29:28;10.87;;;5.80;;
18280;SDS011;9266;51.132;17.062;2023-05-10T04:31:55;8.53;;;6.03;;
18280;SDS011;9266;51.132;17.062;2023-05-10T04:34:22;8.73;;;5.97;;
18280;SDS011;9266;51.132;17.062;2023-05-10T04:36:51;8.57;;;6.00;;
18280;SDS011;9266;51.132;17.062;2023-05-10T04:39:18;9.17;;;6.07;;
18280;SDS011;9266;51.132;17.062;2023-05-10T04:41:45;8.47;;;5.83;;
18280;SDS011;9266;51.132;17.062;2023-05-10T04:44:12;7.90;;;5.83;;
18280;SDS011;9266;51.132;17.062;2023-05-10T04:46:39;8.13;;;5.73;;
18280;SDS011;9266;51.132;17.062;2023-05-10T04:49:06;9.47;;;5.83;;
18280;SDS011;9266;51.132;17.062;2023-05-10T04:51:32;7.60;;;6.00;;
18280;SDS011;9266;51.132;17.062;2023-05-10T04:54:01;7.03;;;5.40;;
18280;SDS011;9266;51.132;17.062;2023-05-10T04:56:28;6.73;;;5.70;;
18280;SDS011;9266;51.132;17.062;2023-05-10T04:58:55;10.43;;;5.90;;
18280;SDS011;9266;51.132;17.062;2023-05-10T05:01:22;8.50;;;5.40;;
18280;SDS011;9266;51.132;17.062;2023-05-10T05:03:49;7.63;;;5.80;;
18280;SDS011;9266;51.132;17.062;2023-05-10T05:06:17;10.07;;;6.17;;
18280;SDS011;9266;51.132;17.062;2023-05-10T05:08:45;7.13;;;5.50;;
18280;SDS011;9266;51.132;17.062;2023-05-10T05:11:15;7.80;;;5.70;;
18280;SDS011;9266;51.132;17.062;2023-05-10T05:13:42;10.20;;;6.27;;
18280;SDS011;9266;51.132;17.062;2023-05-10T05:16:09;6.53;;;5.47;;
18280;SDS011;9266;51.132;17.062;2023-05-10T05:18:36;10.30;;;5.67;;
18280;SDS011;9266;51.132;17.062;2023-05-10T05:21:12;7.93;;;5.63;;
18280;SDS011;9266;51.132;17.062;2023-05-10T05:23:41;8.33;;;5.50;;
18280;SDS011;9266;51.132;17.062;2023-05-10T05:26:08;7.10;;;5.33;;
18280;SDS011;9266;51.132;17.062;2023-05-10T05:28:37;7.27;;;5.60;;
18280;SDS011;9266;51.132;17.062;2023-05-10T05:31:04;8.43;;;5.77;;
18280;SDS011;9266;51.132;17.062;2023-05-10T05:33:32;7.77;;;5.83;;
18280;SDS011;9266;51.132;17.062;2023-05-10T05:36:00;6.17;;;5.13;;
18280;SDS011;9266;51.132;17.062;2023-05-10T05:38:27;8.60;;;5.03;;
18280;SDS011;9266;51.132;17.062;2023-05-10T05:40:54;8.00;;;5.30;;
18280;SDS011;9266;51.132;17.062;2023-05-10T05:43:21;10.90;;;5.50;;
18280;SDS011;9266;51.132;17.062;2023-05-10T05:45:51;10.47;;;5.90;;
18280;SDS011;9266;51.132;17.062;2023-05-10T05:48:19;8.70;;;5.73;;
18280;SDS011;9266;51.132;17.062;2023-05-10T05:50:46;8.10;;;6.03;;
18280;SDS011;9266;51.132;17.062;2023-05-10T05:53:13;8.23;;;6.00;;
18280;SDS011;9266;51.132;17.062;2023-05-10T05:55:45;9.23;;;5.57;;
18280;SDS011;9266;51.132;17.062;2023-05-10T05:58:18;10.23;;;5.60;;
18280;SDS011;9266;51.132;17.062;2023-05-10T06:00:45;8.43;;;5.47;;
18280;SDS011;9266;51.132;17.062;2023-05-10T06:03:13;8.73;;;5.40;;
18280;SDS011;9266;51.132;17.062;2023-05-10T06:05:40;8.03;;;5.40;;
18280;SDS011;9266;51.132;17.062;2023-05-10T06:08:07;8.03;;;5.33;;
18280;SDS011;9266;51.132;17.062;2023-05-10T06:10:34;7.83;;;5.40;;
18280;SDS011;9266;51.132;17.062;2023-05-10T06:13:01;7.10;;;5.37;;
18280;SDS011;9266;51.132;17.062;2023-05-10T06:15:29;7.60;;;5.17;;
18280;SDS011;9266;51.132;17.062;2023-05-10T06:17:56;5.87;;;5.10;;
18280;SDS011;9266;51.132;17.062;2023-05-10T06:20:24;8.13;;;5.23;;
18280;SDS011;9266;51.132;17.062;2023-05-10T06:22:51;7.20;;;5.60;;
18280;SDS011;9266;51.132;17.062;2023-05-10T06:25:18;6.60;;;4.90;;
18280;SDS011;9266;51.132;17.062;2023-05-10T06:27:45;9.63;;;5.40;;
18280;SDS011;9266;51.132;17.062;2023-05-10T06:30:12;7.50;;;5.03;;
18280;SDS011;9266;51.132;17.062;2023-05-10T06:32:40;8.60;;;5.53;;
18280;SDS011;9266;51.132;17.062;2023-05-10T06:35:08;9.30;;;5.00;;
18280;SDS011;9266;51.132;17.062;2023-05-10T06:37:37;6.83;;;4.77;;
18280;SDS011;9266;51.132;17.062;2023-05-10T06:40:05;6.60;;;4.73;;
18280;SDS011;9266;51.132;17.062;2023-05-10T06:42:33;7.47;;;5.10;;
18280;SDS011;9266;51.132;17.062;2023-05-10T06:45:00;6.80;;;4.93;;
18280;SDS011;9266;51.132;17.062;2023-05-10T06:47:28;6.83;;;5.10;;
18280;SDS011;9266;51.132;17.062;2023-05-10T06:49:55;8.30;;;5.07;;
18280;SDS011;9266;51.132;17.062;2023-05-10T06:52:22;5.73;;;5.00;;
18280;SDS011;9266;51.132;17.062;2023-05-10T06:54:50;8.80;;;5.27;;
18280;SDS011;9266;51.132;17.062;2023-05-10T06:57:17;8.30;;;5.03;;
18280;SDS011;9266;51.132;17.062;2023-05-10T06:59:45;6.63;;;4.90;;
18280;SDS011;9266;51.132;17.062;2023-05-10T07:02:12;6.17;;;4.50;;
18280;SDS011;9266;51.132;17.062;2023-05-10T07:04:40;7.40;;;4.30;;
18280;SDS011;9266;51.132;17.062;2023-05-10T07:07:07;6.67;;;4.37;;
18280;SDS011;9266;51.132;17.062;2023-05-10T07:09:34;4.77;;;4.23;;
18280;SDS011;9266;51.132;17.062;2023-05-10T07:12:03;5.93;;;4.47;;
18280;SDS011;9266;51.132;17.062;2023-05-10T07:14:30;5.57;;;4.03;;
18280;SDS011;9266;51.132;17.062;2023-05-10T07:16:57;5.30;;;4.10;;
18280;SDS011;9266;51.132;17.062;2023-05-10T07:19:24;6.57;;;4.33;;
18280;SDS011;9266;51.132;17.062;2023-05-10T07:21:51;8.07;;;4.70;;
18280;SDS011;9266;51.132;17.062;2023-05-10T07:24:18;6.33;;;4.50;;
18280;SDS011;9266;51.132;17.062;2023-05-10T07:26:45;6.67;;;4.40;;
18280;SDS011;9266;51.132;17.062;2023-05-10T07:29:14;5.73;;;4.30;;
18280;SDS011;9266;51.132;17.062;2023-05-10T07:31:41;5.80;;;4.40;;
18280;SDS011;9266;51.132;17.062;2023-05-10T07:34:08;5.40;;;4.10;;
18280;SDS011;9266;51.132;17.062;2023-05-10T07:36:35;6.70;;;4.20;;
18280;SDS011;9266;51.132;17.062;2023-05-10T07:39:02;6.73;;;4.30;;
18280;SDS011;9266;51.132;17.062;2023-05-10T07:41:29;8.37;;;4.70;;
18280;SDS011;9266;51.132;17.062;2023-05-10T07:43:56;7.63;;;4.40;;
18280;SDS011;9266;51.132;17.062;2023-05-10T07:46:25;6.13;;;4.37;;
18280;SDS011;9266;51.132;17.062;2023-05-10T07:48:52;5.93;;;4.40;;
18280;SDS011;9266;51.132;17.062;2023-05-10T07:51:19;6.23;;;4.60;;
18280;SDS011;9266;51.132;17.062;2023-05-10T07:53:46;5.70;;;4.23;;
18280;SDS011;9266;51.132;17.062;2023-05-10T07:56:20;6.57;;;4.60;;
18280;SDS011;9266;51.132;17.062;2023-05-10T07:58:48;5.43;;;4.47;;
18280;SDS011;9266;51.132;17.062;2023-05-10T08:01:15;7.37;;;4.73;;
18280;SDS011;9266;51.132;17.062;2023-05-10T08:03:43;7.10;;;4.40;;
18280;SDS011;9266;51.132;17.062;2023-05-10T08:06:10;7.73;;;4.20;;
18280;SDS011;9266;51.132;17.062;2023-05-10T08:08:37;5.53;;;4.37;;
18280;SDS011;9266;51.132;17.062;2023-05-10T08:11:04;6.07;;;4.20;;
18280;SDS011;9266;51.132;17.062;2023-05-10T08:13:31;6.20;;;4.53;;
18280;SDS011;9266;51.132;17.062;2023-05-10T08:15:59;5.87;;;4.50;;
18280;SDS011;9266;51.132;17.062;2023-05-10T08:18:26;8.03;;;4.60;;
18280;SDS011;9266;51.132;17.062;2023-05-10T08:20:55;9.80;;;4.67;;
18280;SDS011;9266;51.132;17.062;2023-05-10T08:23:22;9.10;;;4.83;;
18280;SDS011;9266;51.132;17.062;2023-05-10T08:25:49;9.40;;;4.50;;
18280;SDS011;9266;51.132;17.062;2023-05-10T08:28:16;6.53;;;4.00;;
18280;SDS011;9266;51.132;17.062;2023-05-10T08:30:43;6.17;;;4.03;;
18280;SDS011;9266;51.132;17.062;2023-05-10T08:33:10;6.10;;;4.30;;
18280;SDS011;9266;51.132;17.062;2023-05-10T08:35:37;6.17;;;4.30;;
18280;SDS011;9266;51.132;17.062;2023-05-10T08:38:06;6.40;;;4.37;;
18280;SDS011;9266;51.132;17.062;2023-05-10T08:40:33;7.97;;;4.30;;
18280;SDS011;9266;51.132;17.062;2023-05-10T08:43:03;5.73;;;3.73;;
18280;SDS011;9266;51.132;17.062;2023-05-10T08:45:32;6.57;;;3.77;;
18280;SDS011;9266;51.132;17.062;2023-05-10T08:48:01;4.90;;;3.73;;
18280;SDS011;9266;51.132;17.062;2023-05-10T08:50:31;6.00;;;3.60;;
18280;SDS011;9266;51.132;17.062;2023-05-10T08:52:59;7.67;;;4.00;;
18280;SDS011;9266;51.132;17.062;2023-05-10T08:55:31;5.30;;;3.40;;
18280;SDS011;9266;51.132;17.062;2023-05-10T08:57:59;5.80;;;3.23;;
18280;SDS011;9266;51.132;17.062;2023-05-10T09:00:26;5.80;;;3.40;;
18280;SDS011;9266;51.132;17.062;2023-05-10T09:02:54;4.53;;;3.80;;
18280;SDS011;9266;51.132;17.062;2023-05-10T09:05:22;4.77;;;3.33;;
18280;SDS011;9266;51.132;17.062;2023-05-10T09:07:49;4.63;;;3.40;;
18280;SDS011;9266;51.132;17.062;2023-05-10T09:10:16;6.30;;;3.50;;
18280;SDS011;9266;51.132;17.062;2023-05-10T09:12:45;4.83;;;3.70;;
18280;SDS011;9266;51.132;17.062;2023-05-10T09:15:13;5.53;;;3.60;;
18280;SDS011;9266;51.132;17.062;2023-05-10T09:17:41;4.80;;;3.50;;
18280;SDS011;9266;51.132;17.062;2023-05-10T09:20:10;8.30;;;4.03;;
18280;SDS011;9266;51.132;17.062;2023-05-10T09:22:37;5.40;;;3.33;;
18280;SDS011;9266;51.132;17.062;2023-05-10T09:25:05;4.80;;;3.57;;
18280;SDS011;9266;51.132;17.062;2023-05-10T09:27:34;9.20;;;3.67;;
18280;SDS011;9266;51.132;17.062;2023-05-10T09:30:03;4.70;;;3.60;;
18280;SDS011;9266;51.132;17.062;2023-05-10T09:32:38;4.37;;;3.53;;
18280;SDS011;9266;51.132;17.062;2023-05-10T09:35:06;4.80;;;4.10;;
18280;SDS011;9266;51.132;17.062;2023-05-10T09:37:34;7.73;;;4.20;;
18280;SDS011;9266;51.132;17.062;2023-05-10T09:40:04;6.07;;;4.17;;
18280;SDS011;9266;51.132;17.062;2023-05-10T09:42:32;4.93;;;3.70;;
18280;SDS011;9266;51.132;17.062;2023-05-10T09:45:00;10.23;;;4.40;;
18280;SDS011;9266;51.132;17.062;2023-05-10T09:47:31;4.67;;;3.60;;
18280;SDS011;9266;51.132;17.062;2023-05-10T09:49:59;4.40;;;3.67;;
18280;SDS011;9266;51.132;17.062;2023-05-10T09:52:29;5.30;;;3.37;;
18280;SDS011;9266;51.132;17.062;2023-05-10T09:54:56;4.87;;;3.53;;
18280;SDS011;9266;51.132;17.062;2023-05-10T09:57:24;5.10;;;3.97;;
18280;SDS011;9266;51.132;17.062;2023-05-10T09:59:51;5.37;;;3.60;;
18280;SDS011;9266;51.132;17.062;2023-05-10T10:02:21;4.30;;;3.90;;
18280;SDS011;9266;51.132;17.062;2023-05-10T10:04:55;5.90;;;3.90;;
18280;SDS011;9266;51.132;17.062;2023-05-10T10:07:23;4.83;;;3.77;;
18280;SDS011;9266;51.132;17.062;2023-05-10T10:09:51;5.17;;;3.63;;
18280;SDS011;9266;51.132;17.062;2023-05-10T10:12:20;6.33;;;3.57;;
18280;SDS011;9266;51.132;17.062;2023-05-10T10:14:47;5.80;;;3.87;;
18280;SDS011;9266;51.132;17.062;2023-05-10T10:17:15;5.40;;;4.00;;
18280;SDS011;9266;51.132;17.062;2023-05-10T10:19:44;4.53;;;4.13;;
18280;SDS011;9266;51.132;17.062;2023-05-10T10:22:11;4.23;;;3.57;;
18280;SDS011;9266;51.132;17.062;2023-05-10T10:24:38;4.30;;;3.90;;
18280;SDS011;9266;51.132;17.062;2023-05-10T10:27:13;4.93;;;3.83;;
18280;SDS011;9266;51.132;17.062;2023-05-10T10:29:48;4.60;;;3.80;;
18280;SDS011;9266;51.132;17.062;2023-05-10T10:32:25;7.30;;;3.40;;
18280;SDS011;9266;51.132;17.062;2023-05-10T10:35:01;6.27;;;3.57;;
18280;SDS011;9266;51.132;17.062;2023-05-10T10:37:42;5.37;;;3.60;;
18280;SDS011;9266;51.132;17.062;2023-05-10T10:40:23;4.57;;;3.67;;
18280;SDS011;9266;51.132;17.062;2023-05-10T10:42:51;5.37;;;3.80;;
18280;SDS011;9266;51.132;17.062;2023-05-10T10:45:20;3.27;;;2.97;;
18280;SDS011;9266;51.132;17.062;2023-05-10T10:47:48;5.17;;;3.10;;
18280;SDS011;9266;51.132;17.062;2023-05-10T10:50:18;4.70;;;3.30;;
18280;SDS011;9266;51.132;17.062;2023-05-10T10:52:45;4.83;;;3.33;;
18280;SDS011;9266;51.132;17.062;2023-05-10T10:55:14;5.43;;;3.40;;
18280;SDS011;9266;51.132;17.062;2023-05-10T10:57:47;5.23;;;3.43;;
18280;SDS011;9266;51.132;17.062;2023-05-10T11:00:20;6.47;;;3.63;;
18280;SDS011;9266;51.132;17.062;2023-05-10T11:02:49;6.90;;;4.03;;
18280;SDS011;9266;51.132;17.062;2023-05-10T11:05:26;5.93;;;3.27;;
18280;SDS011;9266;51.132;17.062;2023-05-10T11:08:08;4.80;;;3.47;;
18280;SDS011;9266;51.132;17.062;2023-05-10T11:10:37;5.40;;;3.67;;
18280;SDS011;9266;51.132;17.062;2023-05-10T11:13:08;5.23;;;3.40;;
18280;SDS011;9266;51.132;17.062;2023-05-10T11:15:36;5.33;;;3.50;;
18280;SDS011;9266;51.132;17.062;2023-05-10T11:18:16;4.77;;;3.27;;
18280;SDS011;9266;51.132;17.062;2023-05-10T11:20:48;4.00;;;3.47;;
18280;SDS011;9266;51.132;17.062;2023-05-10T11:23:17;6.03;;;3.77;;
18280;SDS011;9266;51.132;17.062;2023-05-10T11:25:46;5.37;;;3.60;;
18280;SDS011;9266;51.132;17.062;2023-05-10T11:28:16;4.20;;;3.60;;
18280;SDS011;9266;51.132;17.062;2023-05-10T11:30:44;11.77;;;4.07;;
18280;SDS011;9266;51.132;17.062;2023-05-10T11:33:15;7.07;;;3.50;;
18280;SDS011;9266;51.132;17.062;2023-05-10T11:35:43;3.50;;;3.20;;
18280;SDS011;9266;51.132;17.062;2023-05-10T11:38:11;6.07;;;3.07;;
18280;SDS011;9266;51.132;17.062;2023-05-10T11:40:40;3.27;;;2.97;;
18280;SDS011;9266;51.132;17.062;2023-05-10T11:43:08;3.97;;;3.40;;
18280;SDS011;9266;51.132;17.062;2023-05-10T11:45:37;6.30;;;3.90;;
18280;SDS011;9266;51.132;17.062;2023-05-10T11:48:04;8.47;;;3.80;;
18280;SDS011;9266;51.132;17.062;2023-05-10T11:50:31;4.13;;;3.10;;
18280;SDS011;9266;51.132;17.062;2023-05-10T11:52:58;5.70;;;3.37;;
18280;SDS011;9266;51.132;17.062;2023-05-10T11:55:27;5.10;;;3.33;;
18280;SDS011;9266;51.132;17.062;2023-05-10T11:57:59;4.33;;;3.27;;
18280;SDS011;9266;51.132;17.062;2023-05-10T12:00:27;4.37;;;2.87;;
18280;SDS011;9266;51.132;17.062;2023-05-10T12:02:55;4.50;;;3.37;;
18280;SDS011;9266;51.132;17.062;2023-05-10T12:05:24;4.23;;;2.90;;
18280;SDS011;9266;51.132;17.062;2023-05-10T12:07:51;6.37;;;3.63;;
18280;SDS011;9266;51.132;17.062;2023-05-10T12:10:24;10.37;;;3.20;;
18280;SDS011;9266;51.132;17.062;2023-05-10T12:12:53;5.40;;;3.00;;
18280;SDS011;9266;51.132;17.062;2023-05-10T12:15:21;3.23;;;2.87;;
18280;SDS011;9266;51.132;17.062;2023-05-10T12:17:49;4.93;;;2.90;;
18280;SDS011;9266;51.132;17.062;2023-05-10T12:20:16;6.93;;;3.07;;
18280;SDS011;9266;51.132;17.062;2023-05-10T12:22:45;4.10;;;2.90;;
18280;SDS011;9266;51.132;17.062;2023-05-10T12:25:16;3.40;;;2.83;;
18280;SDS011;9266;51.132;17.062;2023-05-10T12:27:55;7.57;;;3.63;;
18280;SDS011;9266;51.132;17.062;2023-05-10T12:30:23;5.73;;;2.97;;
18280;SDS011;9266;51.132;17.062;2023-05-10T12:32:51;4.53;;;3.17;;
18280;SDS011;9266;51.132;17.062;2023-05-10T12:35:18;6.97;;;2.93;;
18280;SDS011;9266;51.132;17.062;2023-05-10T12:37:47;5.33;;;2.87;;
18280;SDS011;9266;51.132;17.062;2023-05-10T12:40:14;6.53;;;3.40;;
18280;SDS011;9266;51.132;17.062;2023-05-10T12:42:41;5.07;;;3.10;;
18280;SDS011;9266;51.132;17.062;2023-05-10T12:45:11;4.80;;;3.07;;
18280;SDS011;9266;51.132;17.062;2023-05-10T12:47:39;6.17;;;3.43;;
18280;SDS011;9266;51.132;17.062;2023-05-10T12:50:06;4.83;;;3.00;;
18280;SDS011;9266;51.132;17.062;2023-05-10T12:52:34;4.33;;;3.10;;
18280;SDS011;9266;51.132;17.062;2023-05-10T12:55:02;4.07;;;2.80;;
18280;SDS011;9266;51.132;17.062;2023-05-10T12:57:29;6.63;;;3.23;;
18280;SDS011;9266;51.132;17.062;2023-05-10T12:59:56;6.43;;;3.10;;
18280;SDS011;9266;51.132;17.062;2023-05-10T13:02:25;4.97;;;3.10;;
18280;SDS011;9266;51.132;17.062;2023-05-10T13:04:53;6.27;;;2.70;;
18280;SDS011;9266;51.132;17.062;2023-05-10T13:07:20;5.17;;;2.90;;
18280;SDS011;9266;51.132;17.062;2023-05-10T13:09:49;5.00;;;2.57;;
18280;SDS011;9266;51.132;17.062;2023-05-10T13:12:16;4.10;;;2.80;;
18280;SDS011;9266;51.132;17.062;2023-05-10T13:14:43;6.70;;;3.50;;
18280;SDS011;9266;51.132;17.062;2023-05-10T13:17:12;4.03;;;3.10;;
18280;SDS011;9266;51.132;17.062;2023-05-10T13:19:40;3.10;;;2.40;;
18280;SDS011;9266;51.132;17.062;2023-05-10T13:22:08;3.50;;;2.57;;
18280;SDS011;9266;51.132;17.062;2023-05-10T13:24:35;2.93;;;2.60;;
18280;SDS011;9266;51.132;17.062;2023-05-10T13:27:02;3.37;;;2.90;;
18280;SDS011;9266;51.132;17.062;2023-05-10T13:29:30;2.90;;;2.70;;
18280;SDS011;9266;51.132;17.062;2023-05-10T13:31:57;4.60;;;2.77;;
18280;SDS011;9266;51.132;17.062;2023-05-10T13:34:25;4.53;;;3.10;;
18280;SDS011;9266;51.132;17.062;2023-05-10T13:36:55;3.53;;;2.83;;
18280;SDS011;9266;51.132;17.062;2023-05-10T13:39:22;7.07;;;2.53;;
18280;SDS011;9266;51.132;17.062;2023-05-10T13:41:49;6.07;;;2.57;;
18280;SDS011;9266;51.132;17.062;2023-05-10T13:44:16;3.03;;;2.47;;
18280;SDS011;9266;51.132;17.062;2023-05-10T13:46:44;4.50;;;2.60;;
18280;SDS011;9266;51.132;17.062;2023-05-10T13:49:11;5.47;;;2.90;;
18280;SDS011;9266;51.132;17.062;2023-05-10T13:51:38;3.63;;;2.70;;
18280;SDS011;9266;51.132;17.062;2023-05-10T13:54:09;4.30;;;2.80;;
18280;SDS011;9266;51.132;17.062;2023-05-10T13:56:37;4.43;;;2.33;;
18280;SDS011;9266;51.132;17.062;2023-05-10T13:59:04;3.63;;;2.43;;
18280;SDS011;9266;51.132;17.062;2023-05-10T14:01:32;4.10;;;2.57;;
18280;SDS011;9266;51.132;17.062;2023-05-10T14:04:00;4.10;;;2.40;;
18280;SDS011;9266;51.132;17.062;2023-05-10T14:06:27;3.00;;;2.50;;
18280;SDS011;9266;51.132;17.062;2023-05-10T14:08:54;6.20;;;2.77;;
18280;SDS011;9266;51.132;17.062;2023-05-10T14:11:23;3.27;;;2.63;;
18280;SDS011;9266;51.132;17.062;2023-05-10T14:13:51;8.20;;;3.00;;
18280;SDS011;9266;51.132;17.062;2023-05-10T14:16:18;4.10;;;2.60;;
18280;SDS011;9266;51.132;17.062;2023-05-10T14:18:45;3.47;;;2.47;;
18280;SDS011;9266;51.132;17.062;2023-05-10T14:21:12;2.50;;;2.30;;
18280;SDS011;9266;51.132;17.062;2023-05-10T14:23:40;3.30;;;2.40;;
18280;SDS011;9266;51.132;17.062;2023-05-10T14:26:07;3.13;;;2.20;;
18280;SDS011;9266;51.132;17.062;2023-05-10T14:28:36;7.00;;;4.00;;
18280;SDS011;9266;51.132;17.062;2023-05-10T14:31:04;5.27;;;2.60;;
18280;SDS011;9266;51.132;17.062;2023-05-10T14:33:31;5.27;;;3.30;;
18280;SDS011;9266;51.132;17.062;2023-05-10T14:35:58;3.00;;;2.70;;
18280;SDS011;9266;51.132;17.062;2023-05-10T14:38:25;3.17;;;2.63;;
18280;SDS011;9266;51.132;17.062;2023-05-10T14:40:53;3.27;;;2.70;;
18280;SDS011;9266;51.132;17.062;2023-05-10T14:43:20;4.17;;;2.70;;
18280;SDS011;9266;51.132;17.062;2023-05-10T14:45:49;4.43;;;2.63;;
18280;SDS011;9266;51.132;17.062;2023-05-10T14:48:16;3.90;;;2.43;;
18280;SDS011;9266;51.132;17.062;2023-05-10T14:50:43;6.87;;;3.00;;
18280;SDS011;9266;51.132;17.062;2023-05-10T14:53:11;6.70;;;2.70;;
18280;SDS011;9266;51.132;17.062;2023-05-10T14:55:38;5.70;;;3.13;;
18280;SDS011;9266;51.132;17.062;2023-05-10T14:58:06;3.70;;;3.00;;